sensor_id;sensor_type;location;lat;lon;timestamp;temperature;humidity
8684;DHT22;4379;59.744;18.206;2023-07-16T00:02:05;14.40;99.90
8684;DHT22;4379;59.744;18.206;2023-07-16T00:04:32;14.40;99.90
8684;DHT22;4379;59.744;18.206;2023-07-16T00:07:00;14.50;99.90
8684;DHT22;4379;59.744;18.206;2023-07-16T00:09:30;14.60;99.90
8684;DHT22;4379;59.744;18.206;2023-07-16T00:11:57;14.60;99.90
8684;DHT22;4379;59.744;18.206;2023-07-16T00:14:24;14.60;99.90
8684;DHT22;4379;59.744;18.206;2023-07-16T00:16:52;14.60;99.90
8684;DHT22;4379;59.744;18.206;2023-07-16T00:19:19;14.60;99.90
8684;DHT22;4379;59.744;18.206;2023-07-16T00:21:46;14.70;99.90
8684;DHT22;4379;59.744;18.206;2023-07-16T00:24:14;14.70;99.90
8684;DHT22;4379;59.744;18.206;2023-07-16T00:26:41;14.60;99.90
8684;DHT22;4379;59.744;18.206;2023-07-16T00:29:08;14.50;99.90
8684;DHT22;4379;59.744;18.206;2023-07-16T00:31:35;14.50;99.90
8684;DHT22;4379;59.744;18.206;2023-07-16T00:34:03;14.40;99.90
8684;DHT22;4379;59.744;18.206;2023-07-16T00:36:30;14.30;99.90
8684;DHT22;4379;59.744;18.206;2023-07-16T00:38:57;14.20;99.90
8684;DHT22;4379;59.744;18.206;2023-07-16T00:41:25;14.10;99.90
8684;DHT22;4379;59.744;18.206;2023-07-16T00:43:52;14.10;99.90
8684;DHT22;4379;59.744;18.206;2023-07-16T00:46:21;14.00;99.90
8684;DHT22;4379;59.744;18.206;2023-07-16T00:48:49;14.00;99.90
8684;DHT22;4379;59.744;18.206;2023-07-16T00:51:17;14.00;99.90
8684;DHT22;4379;59.744;18.206;2023-07-16T00:53:45;14.00;99.90
8684;DHT22;4379;59.744;18.206;2023-07-16T00:56:16;14.10;99.90
8684;DHT22;4379;59.744;18.206;2023-07-16T00:58:45;14.40;99.90
8684;DHT22;4379;59.744;18.206;2023-07-16T01:01:12;14.40;99.90
8684;DHT22;4379;59.744;18.206;2023-07-16T01:03:40;14.50;99.90
8684;DHT22;4379;59.744;18.206;2023-07-16T01:06:28;14.40;99.90
8684;DHT22;4379;59.744;18.206;2023-07-16T01:11:36;14.60;99.90
8684;DHT22;4379;59.744;18.206;2023-07-16T01:14:05;14.70;99.90
8684;DHT22;4379;59.744;18.206;2023-07-16T01:16:34;15.00;99.90
8684;DHT22;4379;59.744;18.206;2023-07-16T01:19:01;15.10;99.90
8684;DHT22;4379;59.744;18.206;2023-07-16T01:21:47;15.10;99.90
8684;DHT22;4379;59.744;18.206;2023-07-16T01:25:05;15.10;99.90
8684;DHT22;4379;59.744;18.206;2023-07-16T01:27:22;15.10;99.90
8684;DHT22;4379;59.744;18.206;2023-07-16T01:30:04;15.20;99.90
8684;DHT22;4379;59.744;18.206;2023-07-16T01:32:32;15.30;99.90
8684;DHT22;4379;59.744;18.206;2023-07-16T01:35:00;15.40;99.90
8684;DHT22;4379;59.744;18.206;2023-07-16T01:37:29;15.50;99.90
8684;DHT22;4379;59.744;18.206;2023-07-16T01:39:56;15.50;99.90
8684;DHT22;4379;59.744;18.206;2023-07-16T01:42:24;15.50;99.90
8684;DHT22;4379;59.744;18.206;2023-07-16T01:44:51;15.60;99.90
8684;DHT22;4379;59.744;18.206;2023-07-16T01:50:30;15.90;99.90
8684;DHT22;4379;59.744;18.206;2023-07-16T01:52:57;16.00;99.90
8684;DHT22;4379;59.744;18.206;2023-07-16T01:55:24;16.20;99.90
8684;DHT22;4379;59.744;18.206;2023-07-16T01:57:52;16.20;99.90
8684;DHT22;4379;59.744;18.206;2023-07-16T02:00:19;16.30;99.90
8684;DHT22;4379;59.744;18.206;2023-07-16T02:02:46;16.30;99.90
8684;DHT22;4379;59.744;18.206;2023-07-16T02:05:15;16.30;99.90
8684;DHT22;4379;59.744;18.206;2023-07-16T02:07:42;16.30;99.90
8684;DHT22;4379;59.744;18.206;2023-07-16T02:10:09;16.20;99.90
8684;DHT22;4379;59.744;18.206;2023-07-16T02:12:36;16.30;99.90
8684;DHT22;4379;59.744;18.206;2023-07-16T02:15:04;16.40;99.90
8684;DHT22;4379;59.744;18.206;2023-07-16T02:17:31;16.50;99.90
8684;DHT22;4379;59.744;18.206;2023-07-16T02:19:58;16.50;99.90
8684;DHT22;4379;59.744;18.206;2023-07-16T02:22:26;16.60;99.90
8684;DHT22;4379;59.744;18.206;2023-07-16T02:24:54;16.60;99.90
8684;DHT22;4379;59.744;18.206;2023-07-16T02:27:21;16.70;99.90
8684;DHT22;4379;59.744;18.206;2023-07-16T02:29:48;16.70;99.90
8684;DHT22;4379;59.744;18.206;2023-07-16T02:32:16;16.70;99.90
8684;DHT22;4379;59.744;18.206;2023-07-16T02:34:43;16.80;99.90
8684;DHT22;4379;59.744;18.206;2023-07-16T02:37:10;16.90;99.90
8684;DHT22;4379;59.744;18.206;2023-07-16T02:39:44;16.90;99.90
8684;DHT22;4379;59.744;18.206;2023-07-16T02:42:12;16.90;99.90
8684;DHT22;4379;59.744;18.206;2023-07-16T02:44:39;17.00;99.90
8684;DHT22;4379;59.744;18.206;2023-07-16T02:47:11;17.00;99.90
8684;DHT22;4379;59.744;18.206;2023-07-16T02:49:39;17.00;99.90
8684;DHT22;4379;59.744;18.206;2023-07-16T02:52:09;17.10;99.90
8684;DHT22;4379;59.744;18.206;2023-07-16T02:54:36;17.10;99.90
8684;DHT22;4379;59.744;18.206;2023-07-16T02:57:04;17.20;99.90
8684;DHT22;4379;59.744;18.206;2023-07-16T02:59:32;17.20;99.90
8684;DHT22;4379;59.744;18.206;2023-07-16T03:01:59;17.20;99.90
8684;DHT22;4379;59.744;18.206;2023-07-16T03:04:26;17.30;99.90
8684;DHT22;4379;59.744;18.206;2023-07-16T03:06:53;17.40;99.90
8684;DHT22;4379;59.744;18.206;2023-07-16T03:09:21;17.40;99.90
8684;DHT22;4379;59.744;18.206;2023-07-16T03:11:48;17.30;99.90
8684;DHT22;4379;59.744;18.206;2023-07-16T03:14:15;17.30;99.90
8684;DHT22;4379;59.744;18.206;2023-07-16T03:16:42;17.30;99.90
8684;DHT22;4379;59.744;18.206;2023-07-16T03:19:09;17.30;99.90
8684;DHT22;4379;59.744;18.206;2023-07-16T03:21:37;17.30;99.90
8684;DHT22;4379;59.744;18.206;2023-07-16T03:24:04;17.40;99.90
8684;DHT22;4379;59.744;18.206;2023-07-16T03:26:31;17.50;99.90
8684;DHT22;4379;59.744;18.206;2023-07-16T03:28:59;17.50;99.90
8684;DHT22;4379;59.744;18.206;2023-07-16T03:31:26;17.50;99.90
8684;DHT22;4379;59.744;18.206;2023-07-16T03:33:54;17.60;99.90
8684;DHT22;4379;59.744;18.206;2023-07-16T03:36:21;17.50;99.90
8684;DHT22;4379;59.744;18.206;2023-07-16T03:38:48;17.50;99.90
8684;DHT22;4379;59.744;18.206;2023-07-16T03:41:15;17.50;99.90
8684;DHT22;4379;59.744;18.206;2023-07-16T03:43:42;17.50;99.90
8684;DHT22;4379;59.744;18.206;2023-07-16T03:46:09;17.50;99.90
8684;DHT22;4379;59.744;18.206;2023-07-16T03:48:37;17.50;99.90
8684;DHT22;4379;59.744;18.206;2023-07-16T03:51:04;17.50;99.90
8684;DHT22;4379;59.744;18.206;2023-07-16T03:53:31;17.50;99.90
8684;DHT22;4379;59.744;18.206;2023-07-16T03:55:59;17.50;99.90
8684;DHT22;4379;59.744;18.206;2023-07-16T03:58:26;17.40;99.90
8684;DHT22;4379;59.744;18.206;2023-07-16T04:00:56;17.50;99.90
8684;DHT22;4379;59.744;18.206;2023-07-16T04:03:23;17.40;99.90
8684;DHT22;4379;59.744;18.206;2023-07-16T04:05:51;17.50;99.90
8684;DHT22;4379;59.744;18.206;2023-07-16T04:08:18;17.40;99.90
8684;DHT22;4379;59.744;18.206;2023-07-16T04:10:45;17.20;99.90
8684;DHT22;4379;59.744;18.206;2023-07-16T04:13:12;17.10;99.90
8684;DHT22;4379;59.744;18.206;2023-07-16T04:15:40;17.00;99.90
8684;DHT22;4379;59.744;18.206;2023-07-16T04:18:07;17.00;99.90
8684;DHT22;4379;59.744;18.206;2023-07-16T04:20:34;17.00;99.90
8684;DHT22;4379;59.744;18.206;2023-07-16T04:23:01;16.90;99.90
8684;DHT22;4379;59.744;18.206;2023-07-16T04:25:29;16.90;99.90
8684;DHT22;4379;59.744;18.206;2023-07-16T04:27:56;16.90;99.90
8684;DHT22;4379;59.744;18.206;2023-07-16T04:30:24;16.70;99.90
8684;DHT22;4379;59.744;18.206;2023-07-16T04:32:51;16.60;99.90
8684;DHT22;4379;59.744;18.206;2023-07-16T04:35:18;16.50;99.90
8684;DHT22;4379;59.744;18.206;2023-07-16T04:37:46;16.30;99.90
8684;DHT22;4379;59.744;18.206;2023-07-16T04:40:13;16.40;99.90
8684;DHT22;4379;59.744;18.206;2023-07-16T04:42:40;16.30;99.90
8684;DHT22;4379;59.744;18.206;2023-07-16T04:45:08;16.20;99.90
8684;DHT22;4379;59.744;18.206;2023-07-16T04:47:35;15.90;99.90
8684;DHT22;4379;59.744;18.206;2023-07-16T04:50:04;15.90;99.90
8684;DHT22;4379;59.744;18.206;2023-07-16T04:52:31;15.90;99.90
8684;DHT22;4379;59.744;18.206;2023-07-16T04:54:59;15.90;99.90
8684;DHT22;4379;59.744;18.206;2023-07-16T04:57:26;15.90;99.90
8684;DHT22;4379;59.744;18.206;2023-07-16T04:59:53;16.00;99.90
8684;DHT22;4379;59.744;18.206;2023-07-16T05:02:21;16.10;99.90
8684;DHT22;4379;59.744;18.206;2023-07-16T05:04:48;16.20;99.90
8684;DHT22;4379;59.744;18.206;2023-07-16T05:07:15;16.20;99.90
8684;DHT22;4379;59.744;18.206;2023-07-16T05:09:43;16.20;99.90
8684;DHT22;4379;59.744;18.206;2023-07-16T05:12:10;16.20;99.90
8684;DHT22;4379;59.744;18.206;2023-07-16T05:14:48;16.30;99.90
8684;DHT22;4379;59.744;18.206;2023-07-16T05:17:15;16.20;99.90
8684;DHT22;4379;59.744;18.206;2023-07-16T05:19:43;16.30;99.90
8684;DHT22;4379;59.744;18.206;2023-07-16T05:22:11;16.30;99.90
8684;DHT22;4379;59.744;18.206;2023-07-16T05:24:38;16.30;99.90
8684;DHT22;4379;59.744;18.206;2023-07-16T05:27:09;16.30;99.90
8684;DHT22;4379;59.744;18.206;2023-07-16T05:29:36;16.40;99.90
8684;DHT22;4379;59.744;18.206;2023-07-16T05:32:04;16.40;99.90
8684;DHT22;4379;59.744;18.206;2023-07-16T05:34:31;16.50;99.90
8684;DHT22;4379;59.744;18.206;2023-07-16T05:36:59;16.60;99.90
8684;DHT22;4379;59.744;18.206;2023-07-16T05:39:26;16.60;99.90
8684;DHT22;4379;59.744;18.206;2023-07-16T05:41:53;16.70;99.90
8684;DHT22;4379;59.744;18.206;2023-07-16T05:44:20;16.80;99.90
8684;DHT22;4379;59.744;18.206;2023-07-16T05:46:48;16.90;99.90
8684;DHT22;4379;59.744;18.206;2023-07-16T05:49:15;16.90;99.90
8684;DHT22;4379;59.744;18.206;2023-07-16T05:51:43;17.00;99.90
8684;DHT22;4379;59.744;18.206;2023-07-16T05:54:10;17.00;99.90
8684;DHT22;4379;59.744;18.206;2023-07-16T05:56:37;17.30;99.90
8684;DHT22;4379;59.744;18.206;2023-07-16T05:59:04;17.50;99.90
8684;DHT22;4379;59.744;18.206;2023-07-16T06:01:32;17.80;99.90
8684;DHT22;4379;59.744;18.206;2023-07-16T06:03:59;18.50;99.90
8684;DHT22;4379;59.744;18.206;2023-07-16T06:06:28;19.30;99.90
8684;DHT22;4379;59.744;18.206;2023-07-16T06:08:55;19.60;99.90
8684;DHT22;4379;59.744;18.206;2023-07-16T06:11:23;19.60;99.90
8684;DHT22;4379;59.744;18.206;2023-07-16T06:13:53;19.70;99.90
8684;DHT22;4379;59.744;18.206;2023-07-16T06:16:21;19.60;99.90
8684;DHT22;4379;59.744;18.206;2023-07-16T06:18:49;20.00;99.90
8684;DHT22;4379;59.744;18.206;2023-07-16T06:21:16;20.10;99.90
8684;DHT22;4379;59.744;18.206;2023-07-16T06:23:43;20.90;99.90
8684;DHT22;4379;59.744;18.206;2023-07-16T06:26:11;21.70;99.90
8684;DHT22;4379;59.744;18.206;2023-07-16T06:28:38;21.50;99.90
8684;DHT22;4379;59.744;18.206;2023-07-16T06:31:05;21.60;99.90
8684;DHT22;4379;59.744;18.206;2023-07-16T06:33:33;20.60;99.90
8684;DHT22;4379;59.744;18.206;2023-07-16T06:36:00;20.10;99.90
8684;DHT22;4379;59.744;18.206;2023-07-16T06:38:28;19.90;99.90
8684;DHT22;4379;59.744;18.206;2023-07-16T06:40:55;19.60;99.90
8684;DHT22;4379;59.744;18.206;2023-07-16T06:43:23;19.60;99.90
8684;DHT22;4379;59.744;18.206;2023-07-16T06:45:50;19.70;99.90
8684;DHT22;4379;59.744;18.206;2023-07-16T06:48:18;19.80;99.90
8684;DHT22;4379;59.744;18.206;2023-07-16T06:50:45;19.80;99.90
8684;DHT22;4379;59.744;18.206;2023-07-16T06:53:13;19.70;99.90
8684;DHT22;4379;59.744;18.206;2023-07-16T06:55:40;19.60;99.90
8684;DHT22;4379;59.744;18.206;2023-07-16T06:58:10;19.60;99.90
8684;DHT22;4379;59.744;18.206;2023-07-16T07:00:38;19.40;99.90
8684;DHT22;4379;59.744;18.206;2023-07-16T07:03:05;19.50;99.90
8684;DHT22;4379;59.744;18.206;2023-07-16T07:05:33;19.40;99.90
8684;DHT22;4379;59.744;18.206;2023-07-16T07:08:03;19.40;99.90
8684;DHT22;4379;59.744;18.206;2023-07-16T07:10:30;19.40;99.90
8684;DHT22;4379;59.744;18.206;2023-07-16T07:12:57;19.30;99.90
8684;DHT22;4379;59.744;18.206;2023-07-16T07:15:25;19.30;99.90
8684;DHT22;4379;59.744;18.206;2023-07-16T07:17:52;19.30;99.90
8684;DHT22;4379;59.744;18.206;2023-07-16T07:20:19;19.20;99.90
8684;DHT22;4379;59.744;18.206;2023-07-16T07:22:46;19.20;99.90
8684;DHT22;4379;59.744;18.206;2023-07-16T07:25:14;19.20;99.90
8684;DHT22;4379;59.744;18.206;2023-07-16T07:27:41;19.30;99.90
8684;DHT22;4379;59.744;18.206;2023-07-16T07:30:09;19.20;99.90
8684;DHT22;4379;59.744;18.206;2023-07-16T07:32:37;19.20;99.90
8684;DHT22;4379;59.744;18.206;2023-07-16T07:35:06;19.20;99.90
8684;DHT22;4379;59.744;18.206;2023-07-16T07:37:33;19.30;99.90
8684;DHT22;4379;59.744;18.206;2023-07-16T07:40:00;19.30;99.90
8684;DHT22;4379;59.744;18.206;2023-07-16T07:42:28;19.30;99.90
8684;DHT22;4379;59.744;18.206;2023-07-16T07:44:57;19.40;99.90
8684;DHT22;4379;59.744;18.206;2023-07-16T07:47:24;19.50;99.90
8684;DHT22;4379;59.744;18.206;2023-07-16T07:49:52;19.50;99.90
8684;DHT22;4379;59.744;18.206;2023-07-16T07:52:20;19.40;99.90
8684;DHT22;4379;59.744;18.206;2023-07-16T07:54:47;19.40;99.90
8684;DHT22;4379;59.744;18.206;2023-07-16T07:57:15;19.40;99.90
8684;DHT22;4379;59.744;18.206;2023-07-16T07:59:44;19.40;99.90
8684;DHT22;4379;59.744;18.206;2023-07-16T08:02:11;19.30;99.90
8684;DHT22;4379;59.744;18.206;2023-07-16T08:04:39;19.30;99.90
8684;DHT22;4379;59.744;18.206;2023-07-16T08:07:06;19.20;99.90
8684;DHT22;4379;59.744;18.206;2023-07-16T08:09:33;19.20;99.90
8684;DHT22;4379;59.744;18.206;2023-07-16T08:12:00;19.20;99.90
8684;DHT22;4379;59.744;18.206;2023-07-16T08:14:28;19.40;99.90
8684;DHT22;4379;59.744;18.206;2023-07-16T08:16:56;19.50;99.90
8684;DHT22;4379;59.744;18.206;2023-07-16T08:19:23;19.60;99.90
8684;DHT22;4379;59.744;18.206;2023-07-16T08:21:50;19.60;99.90
8684;DHT22;4379;59.744;18.206;2023-07-16T08:24:18;19.50;99.90
8684;DHT22;4379;59.744;18.206;2023-07-16T08:26:45;19.50;99.90
8684;DHT22;4379;59.744;18.206;2023-07-16T08:29:12;19.50;99.90
8684;DHT22;4379;59.744;18.206;2023-07-16T08:31:40;19.50;99.90
8684;DHT22;4379;59.744;18.206;2023-07-16T08:34:08;19.50;99.90
8684;DHT22;4379;59.744;18.206;2023-07-16T08:36:36;19.50;99.90
8684;DHT22;4379;59.744;18.206;2023-07-16T08:39:05;19.60;99.90
8684;DHT22;4379;59.744;18.206;2023-07-16T08:41:32;19.60;99.90
8684;DHT22;4379;59.744;18.206;2023-07-16T08:44:00;19.70;99.90
8684;DHT22;4379;59.744;18.206;2023-07-16T08:46:27;19.80;99.90
8684;DHT22;4379;59.744;18.206;2023-07-16T08:48:55;19.80;99.90
8684;DHT22;4379;59.744;18.206;2023-07-16T08:51:25;19.80;99.90
8684;DHT22;4379;59.744;18.206;2023-07-16T08:53:52;19.80;99.90
8684;DHT22;4379;59.744;18.206;2023-07-16T08:56:20;19.80;99.90
8684;DHT22;4379;59.744;18.206;2023-07-16T08:58:47;19.70;99.90
8684;DHT22;4379;59.744;18.206;2023-07-16T09:01:16;19.80;99.90
8684;DHT22;4379;59.744;18.206;2023-07-16T09:03:49;19.90;99.90
8684;DHT22;4379;59.744;18.206;2023-07-16T09:06:17;19.90;99.90
8684;DHT22;4379;59.744;18.206;2023-07-16T09:08:45;19.80;99.90
8684;DHT22;4379;59.744;18.206;2023-07-16T09:11:12;19.60;99.90
8684;DHT22;4379;59.744;18.206;2023-07-16T09:13:46;19.70;99.90
8684;DHT22;4379;59.744;18.206;2023-07-16T09:16:13;19.60;99.90
8684;DHT22;4379;59.744;18.206;2023-07-16T09:18:43;19.50;99.90
8684;DHT22;4379;59.744;18.206;2023-07-16T09:21:11;19.30;99.90
8684;DHT22;4379;59.744;18.206;2023-07-16T09:23:38;19.10;99.90
8684;DHT22;4379;59.744;18.206;2023-07-16T09:26:06;19.10;99.90
8684;DHT22;4379;59.744;18.206;2023-07-16T09:28:34;19.00;99.90
8684;DHT22;4379;59.744;18.206;2023-07-16T09:31:05;19.10;99.90
8684;DHT22;4379;59.744;18.206;2023-07-16T09:33:33;19.20;99.90
8684;DHT22;4379;59.744;18.206;2023-07-16T09:36:01;19.20;99.90
8684;DHT22;4379;59.744;18.206;2023-07-16T09:38:30;19.30;99.90
8684;DHT22;4379;59.744;18.206;2023-07-16T09:40:59;19.20;99.90
8684;DHT22;4379;59.744;18.206;2023-07-16T09:43:26;19.30;99.90
8684;DHT22;4379;59.744;18.206;2023-07-16T09:45:53;19.20;99.90
8684;DHT22;4379;59.744;18.206;2023-07-16T09:48:21;19.20;99.90
8684;DHT22;4379;59.744;18.206;2023-07-16T09:50:53;19.20;99.90
8684;DHT22;4379;59.744;18.206;2023-07-16T09:53:21;18.90;99.90
8684;DHT22;4379;59.744;18.206;2023-07-16T09:55:52;18.80;99.90
8684;DHT22;4379;59.744;18.206;2023-07-16T09:58:20;18.60;99.90
8684;DHT22;4379;59.744;18.206;2023-07-16T10:00:50;18.30;99.90
8684;DHT22;4379;59.744;18.206;2023-07-16T10:03:18;18.30;99.90
8684;DHT22;4379;59.744;18.206;2023-07-16T10:05:45;18.30;99.90
8684;DHT22;4379;59.744;18.206;2023-07-16T10:08:17;18.40;99.90
8684;DHT22;4379;59.744;18.206;2023-07-16T10:10:53;18.40;99.90
8684;DHT22;4379;59.744;18.206;2023-07-16T10:13:23;18.30;99.90
8684;DHT22;4379;59.744;18.206;2023-07-16T10:15:52;18.40;99.90
8684;DHT22;4379;59.744;18.206;2023-07-16T10:18:28;18.30;99.90
8684;DHT22;4379;59.744;18.206;2023-07-16T10:21:08;18.20;99.90
8684;DHT22;4379;59.744;18.206;2023-07-16T10:23:45;17.80;99.90
8684;DHT22;4379;59.744;18.206;2023-07-16T10:26:14;17.70;99.90
8684;DHT22;4379;59.744;18.206;2023-07-16T10:28:46;17.70;99.90
8684;DHT22;4379;59.744;18.206;2023-07-16T10:31:22;17.70;99.90
8684;DHT22;4379;59.744;18.206;2023-07-16T10:34:03;17.70;99.90
8684;DHT22;4379;59.744;18.206;2023-07-16T10:36:41;17.70;99.90
8684;DHT22;4379;59.744;18.206;2023-07-16T10:39:09;17.80;99.90
8684;DHT22;4379;59.744;18.206;2023-07-16T10:41:37;17.80;99.90
8684;DHT22;4379;59.744;18.206;2023-07-16T10:44:04;17.80;99.90
8684;DHT22;4379;59.744;18.206;2023-07-16T10:46:35;17.90;99.90
8684;DHT22;4379;59.744;18.206;2023-07-16T10:49:03;17.80;99.90
8684;DHT22;4379;59.744;18.206;2023-07-16T10:51:30;17.80;99.90
8684;DHT22;4379;59.744;18.206;2023-07-16T10:53:58;18.00;99.90
8684;DHT22;4379;59.744;18.206;2023-07-16T10:56:25;18.00;99.90
8684;DHT22;4379;59.744;18.206;2023-07-16T10:58:53;18.00;99.90
8684;DHT22;4379;59.744;18.206;2023-07-16T11:01:20;18.10;99.90
8684;DHT22;4379;59.744;18.206;2023-07-16T11:03:48;18.20;99.90
8684;DHT22;4379;59.744;18.206;2023-07-16T11:06:18;18.30;99.90
8684;DHT22;4379;59.744;18.206;2023-07-16T11:08:46;18.50;99.90
8684;DHT22;4379;59.744;18.206;2023-07-16T11:11:13;18.50;99.90
8684;DHT22;4379;59.744;18.206;2023-07-16T11:13:41;18.40;99.90
8684;DHT22;4379;59.744;18.206;2023-07-16T11:16:09;18.40;99.90
8684;DHT22;4379;59.744;18.206;2023-07-16T11:18:37;18.20;99.90
8684;DHT22;4379;59.744;18.206;2023-07-16T11:21:04;18.20;99.90
8684;DHT22;4379;59.744;18.206;2023-07-16T11:23:35;18.20;99.90
8684;DHT22;4379;59.744;18.206;2023-07-16T11:26:03;18.20;99.90
8684;DHT22;4379;59.744;18.206;2023-07-16T11:28:38;18.40;99.90
8684;DHT22;4379;59.744;18.206;2023-07-16T11:31:16;18.50;99.90
8684;DHT22;4379;59.744;18.206;2023-07-16T11:33:47;18.60;99.90
8684;DHT22;4379;59.744;18.206;2023-07-16T11:36:16;18.30;99.90
8684;DHT22;4379;59.744;18.206;2023-07-16T11:38:44;18.30;99.90
8684;DHT22;4379;59.744;18.206;2023-07-16T11:41:12;18.20;99.90
8684;DHT22;4379;59.744;18.206;2023-07-16T11:43:40;18.20;99.90
8684;DHT22;4379;59.744;18.206;2023-07-16T11:46:15;18.30;99.90
8684;DHT22;4379;59.744;18.206;2023-07-16T11:48:44;18.50;99.90
8684;DHT22;4379;59.744;18.206;2023-07-16T11:51:11;18.50;99.90
8684;DHT22;4379;59.744;18.206;2023-07-16T11:53:39;18.30;99.90
8684;DHT22;4379;59.744;18.206;2023-07-16T11:56:06;18.60;99.90
8684;DHT22;4379;59.744;18.206;2023-07-16T11:58:33;18.60;99.90
8684;DHT22;4379;59.744;18.206;2023-07-16T12:01:01;18.90;99.90
8684;DHT22;4379;59.744;18.206;2023-07-16T12:03:30;18.90;99.90
8684;DHT22;4379;59.744;18.206;2023-07-16T12:05:57;18.80;99.90
8684;DHT22;4379;59.744;18.206;2023-07-16T12:08:24;19.00;99.90
8684;DHT22;4379;59.744;18.206;2023-07-16T12:10:52;19.30;99.90
8684;DHT22;4379;59.744;18.206;2023-07-16T12:13:20;19.40;99.90
8684;DHT22;4379;59.744;18.206;2023-07-16T12:15:48;19.70;99.90
8684;DHT22;4379;59.744;18.206;2023-07-16T12:18:15;19.80;99.90
8684;DHT22;4379;59.744;18.206;2023-07-16T12:20:43;20.10;99.90
8684;DHT22;4379;59.744;18.206;2023-07-16T12:23:10;19.50;99.90
8684;DHT22;4379;59.744;18.206;2023-07-16T12:25:37;19.20;99.90
8684;DHT22;4379;59.744;18.206;2023-07-16T12:28:05;19.40;99.90
8684;DHT22;4379;59.744;18.206;2023-07-16T12:30:34;19.60;99.90
8684;DHT22;4379;59.744;18.206;2023-07-16T12:33:09;19.80;99.90
8684;DHT22;4379;59.744;18.206;2023-07-16T12:35:48;19.90;99.90
8684;DHT22;4379;59.744;18.206;2023-07-16T12:38:15;19.80;99.90
8684;DHT22;4379;59.744;18.206;2023-07-16T12:40:43;20.00;99.90
8684;DHT22;4379;59.744;18.206;2023-07-16T12:43:10;19.80;99.90
8684;DHT22;4379;59.744;18.206;2023-07-16T12:45:37;19.80;99.90
8684;DHT22;4379;59.744;18.206;2023-07-16T12:48:05;19.70;99.90
8684;DHT22;4379;59.744;18.206;2023-07-16T12:50:33;19.60;99.90
8684;DHT22;4379;59.744;18.206;2023-07-16T12:53:00;19.80;99.90
8684;DHT22;4379;59.744;18.206;2023-07-16T12:55:27;20.10;99.90
8684;DHT22;4379;59.744;18.206;2023-07-16T12:57:54;20.40;99.90
8684;DHT22;4379;59.744;18.206;2023-07-16T13:00:22;20.30;99.90
8684;DHT22;4379;59.744;18.206;2023-07-16T13:02:49;20.00;99.90
8684;DHT22;4379;59.744;18.206;2023-07-16T13:05:17;20.00;99.90
8684;DHT22;4379;59.744;18.206;2023-07-16T13:07:44;20.00;99.90
8684;DHT22;4379;59.744;18.206;2023-07-16T13:10:11;19.70;99.90
8684;DHT22;4379;59.744;18.206;2023-07-16T13:12:49;19.60;99.90
8684;DHT22;4379;59.744;18.206;2023-07-16T13:15:16;20.00;99.90
8684;DHT22;4379;59.744;18.206;2023-07-16T13:17:43;20.30;99.90
8684;DHT22;4379;59.744;18.206;2023-07-16T13:20:11;20.50;99.90
8684;DHT22;4379;59.744;18.206;2023-07-16T13:22:38;21.00;99.90
8684;DHT22;4379;59.744;18.206;2023-07-16T13:25:06;20.60;99.90
8684;DHT22;4379;59.744;18.206;2023-07-16T13:27:34;20.90;99.90
8684;DHT22;4379;59.744;18.206;2023-07-16T13:30:01;21.00;99.90
8684;DHT22;4379;59.744;18.206;2023-07-16T13:32:29;20.70;99.90
8684;DHT22;4379;59.744;18.206;2023-07-16T13:34:56;20.90;99.90
8684;DHT22;4379;59.744;18.206;2023-07-16T13:37:23;20.90;99.90
8684;DHT22;4379;59.744;18.206;2023-07-16T13:39:51;20.80;99.90
8684;DHT22;4379;59.744;18.206;2023-07-16T13:42:18;20.80;99.90
8684;DHT22;4379;59.744;18.206;2023-07-16T13:44:49;20.50;99.90
8684;DHT22;4379;59.744;18.206;2023-07-16T13:47:17;20.80;99.90
8684;DHT22;4379;59.744;18.206;2023-07-16T13:49:44;20.90;99.90
8684;DHT22;4379;59.744;18.206;2023-07-16T13:52:12;21.00;99.90
8684;DHT22;4379;59.744;18.206;2023-07-16T13:54:39;20.90;99.90
8684;DHT22;4379;59.744;18.206;2023-07-16T13:57:08;20.80;99.90
8684;DHT22;4379;59.744;18.206;2023-07-16T13:59:36;20.90;99.90
8684;DHT22;4379;59.744;18.206;2023-07-16T14:02:04;21.30;99.90
8684;DHT22;4379;59.744;18.206;2023-07-16T14:04:32;21.10;99.90
8684;DHT22;4379;59.744;18.206;2023-07-16T14:07:00;21.00;99.90
8684;DHT22;4379;59.744;18.206;2023-07-16T14:09:27;21.10;99.90
8684;DHT22;4379;59.744;18.206;2023-07-16T14:11:55;20.80;99.90
8684;DHT22;4379;59.744;18.206;2023-07-16T14:14:22;21.10;99.90
8684;DHT22;4379;59.744;18.206;2023-07-16T14:16:50;21.20;99.90
8684;DHT22;4379;59.744;18.206;2023-07-16T14:19:18;21.00;99.90
8684;DHT22;4379;59.744;18.206;2023-07-16T14:21:46;21.40;99.90
8684;DHT22;4379;59.744;18.206;2023-07-16T14:24:13;21.10;99.90
8684;DHT22;4379;59.744;18.206;2023-07-16T14:26:40;21.00;99.90
8684;DHT22;4379;59.744;18.206;2023-07-16T14:29:07;21.10;99.90
8684;DHT22;4379;59.744;18.206;2023-07-16T14:31:35;21.10;99.90
8684;DHT22;4379;59.744;18.206;2023-07-16T14:34:02;21.20;99.90
8684;DHT22;4379;59.744;18.206;2023-07-16T14:36:30;21.40;99.90
8684;DHT22;4379;59.744;18.206;2023-07-16T14:38:57;21.80;99.90
8684;DHT22;4379;59.744;18.206;2023-07-16T14:41:24;21.60;99.90
8684;DHT22;4379;59.744;18.206;2023-07-16T14:43:51;21.90;99.90
8684;DHT22;4379;59.744;18.206;2023-07-16T14:46:23;22.00;99.90
8684;DHT22;4379;59.744;18.206;2023-07-16T14:48:50;22.20;99.90
8684;DHT22;4379;59.744;18.206;2023-07-16T14:51:22;22.00;99.90
8684;DHT22;4379;59.744;18.206;2023-07-16T14:53:50;22.10;99.90
8684;DHT22;4379;59.744;18.206;2023-07-16T14:56:17;21.80;99.90
8684;DHT22;4379;59.744;18.206;2023-07-16T14:58:45;21.80;99.90
8684;DHT22;4379;59.744;18.206;2023-07-16T15:01:12;22.10;99.90
8684;DHT22;4379;59.744;18.206;2023-07-16T15:03:40;22.10;99.90
8684;DHT22;4379;59.744;18.206;2023-07-16T15:06:08;22.00;99.90
8684;DHT22;4379;59.744;18.206;2023-07-16T15:08:35;21.90;99.90
8684;DHT22;4379;59.744;18.206;2023-07-16T15:11:03;22.00;99.90
8684;DHT22;4379;59.744;18.206;2023-07-16T15:13:30;21.90;99.90
8684;DHT22;4379;59.744;18.206;2023-07-16T15:15:58;21.60;99.90
8684;DHT22;4379;59.744;18.206;2023-07-16T15:18:26;21.30;99.90
8684;DHT22;4379;59.744;18.206;2023-07-16T15:21:01;21.30;99.90
8684;DHT22;4379;59.744;18.206;2023-07-16T15:23:29;21.50;99.90
8684;DHT22;4379;59.744;18.206;2023-07-16T15:26:02;21.50;99.90
8684;DHT22;4379;59.744;18.206;2023-07-16T15:28:31;21.60;99.90
8684;DHT22;4379;59.744;18.206;2023-07-16T15:31:01;21.60;99.90
8684;DHT22;4379;59.744;18.206;2023-07-16T15:33:29;21.60;99.90
8684;DHT22;4379;59.744;18.206;2023-07-16T15:35:57;21.80;99.90
8684;DHT22;4379;59.744;18.206;2023-07-16T15:38:26;21.80;99.90
8684;DHT22;4379;59.744;18.206;2023-07-16T15:40:55;21.60;99.90
8684;DHT22;4379;59.744;18.206;2023-07-16T15:43:25;21.30;99.90
8684;DHT22;4379;59.744;18.206;2023-07-16T15:45:52;21.10;99.90
8684;DHT22;4379;59.744;18.206;2023-07-16T15:48:19;20.90;99.90
8684;DHT22;4379;59.744;18.206;2023-07-16T15:50:47;21.00;99.90
8684;DHT22;4379;59.744;18.206;2023-07-16T15:53:14;21.30;99.90
8684;DHT22;4379;59.744;18.206;2023-07-16T15:55:41;21.10;99.90
8684;DHT22;4379;59.744;18.206;2023-07-16T15:58:09;21.10;99.90